Time;durP1;ratioP1;P1;durP2;ratioP2;P2;SDS_P1;SDS_P2;PMS_P1;PMS_P2;Temp;Humidity;BMP_temperature;BMP_pressure;BME280_temperature;BME280_humidity;BME280_pressure;Samples;Min_cycle;Max_cycle;Signal;HPM_P1;HPM_P2
2022/08/24 00:00:53;;;;;;;2.53;1.70;;;;;;;;;;4951468;28;20392;-44
2022/08/24 00:03:20;;;;;;;2.70;1.60;;;;;;;;;;4949796;28;20287;-44
2022/08/24 00:05:46;;;;;;;2.60;1.37;;;;;;;;;;4950415;28;20758;-44
2022/08/24 00:08:12;;;;;;;1.90;1.43;;;;;;;;;;4951035;28;20960;-44
2022/08/24 00:10:38;;;;;;;1.60;1.20;;;;;;;;;;4951243;28;20194;-44
2022/08/24 00:13:04;;;;;;;1.63;1.20;;;;;;;;;;4951016;28;20369;-44
2022/08/24 00:15:31;;;;;;;1.47;1.37;;;;;;;;;;4951173;28;20205;-44
2022/08/24 00:17:57;;;;;;;1.77;1.30;;;;;;;;;;4948020;28;20178;-44
2022/08/24 00:20:25;;;;;;;2.97;1.57;;;;;;;;;;4950733;28;20182;-44
2022/08/24 00:22:51;;;;;;;2.30;1.33;;;;;;;;;;4950470;28;20493;-44
2022/08/24 00:25:19;;;;;;;3.00;1.38;;;;;;;;;;4953608;28;20514;-44
2022/08/24 00:27:45;;;;;;;3.15;1.60;;;;;;;;;;4948210;28;20447;-44
2022/08/24 00:30:14;;;;;;;1.70;1.30;;;;;;;;;;4951166;28;20792;-44
2022/08/24 00:32:41;;;;;;;2.80;1.53;;;;;;;;;;4949836;28;20174;-44
2022/08/24 00:35:08;;;;;;;2.57;1.50;;;;;;;;;;4949471;28;20186;-44
2022/08/24 00:37:34;;;;;;;3.58;1.60;;;;;;;;;;4951808;28;20897;-44
2022/08/24 00:40:00;;;;;;;3.83;1.70;;;;;;;;;;4952404;28;20504;-44
2022/08/24 00:42:26;;;;;;;2.47;1.95;;;;;;;;;;4947498;28;20468;-44
2022/08/24 00:44:52;;;;;;;1.90;1.70;;;;;;;;;;4947945;28;20765;-44
2022/08/24 00:47:25;;;;;;;3.43;1.70;;;;;;;;;;4953958;28;20189;-44
2022/08/24 00:49:58;;;;;;;2.07;1.70;;;;;;;;;;4955966;28;20316;-44
2022/08/24 00:52:27;;;;;;;3.33;1.90;;;;;;;;;;4952291;28;20640;-44
2022/08/24 00:54:56;;;;;;;3.90;1.70;;;;;;;;;;4954593;28;20178;-44
2022/08/24 00:57:25;;;;;;;2.33;1.50;;;;;;;;;;4951124;28;20978;-44
2022/08/24 01:00:00;;;;;;;3.23;1.90;;;;;;;;;;4947248;28;20926;-44
2022/08/24 01:02:29;;;;;;;2.60;1.57;;;;;;;;;;4948846;28;20200;-43
2022/08/24 01:04:56;;;;;;;1.97;1.50;;;;;;;;;;4948505;28;20212;-45
2022/08/24 01:07:23;;;;;;;2.10;1.67;;;;;;;;;;4951949;28;20208;-44
2022/08/24 01:09:51;;;;;;;2.80;1.70;;;;;;;;;;4967393;28;20205;-44
2022/08/24 01:12:17;;;;;;;1.77;1.60;;;;;;;;;;4952081;28;20564;-44
2022/08/24 01:14:43;;;;;;;3.20;1.83;;;;;;;;;;4949620;28;20190;-44
2022/08/24 01:19:57;;;;;;;1.67;1.57;;;;;;;;;;4945709;28;20192;-44
2022/08/24 01:22:26;;;;;;;3.73;2.03;;;;;;;;;;4951942;28;20756;-45
2022/08/24 01:24:52;;;;;;;4.77;2.07;;;;;;;;;;4955758;28;20185;-44
2022/08/24 01:27:18;;;;;;;2.57;1.87;;;;;;;;;;4957071;28;20182;-45
2022/08/24 01:29:45;;;;;;;2.03;1.70;;;;;;;;;;4951537;28;20741;-44
2022/08/24 01:32:12;;;;;;;2.27;1.80;;;;;;;;;;4956024;28;20991;-44
2022/08/24 01:34:38;;;;;;;1.73;1.60;;;;;;;;;;4957611;28;20209;-44
2022/08/24 01:37:07;;;;;;;3.17;1.60;;;;;;;;;;4955786;28;20703;-44
2022/08/24 01:39:53;;;;;;;2.87;1.63;;;;;;;;;;4951904;28;20582;-44
2022/08/24 01:42:19;;;;;;;2.60;1.87;;;;;;;;;;4951492;28;20284;-44
2022/08/24 01:44:46;;;;;;;2.13;1.60;;;;;;;;;;4955600;28;20243;-44
2022/08/24 01:47:13;;;;;;;4.00;2.20;;;;;;;;;;4956070;28;20742;-44
2022/08/24 01:49:41;;;;;;;2.10;1.40;;;;;;;;;;4950060;28;20650;-44
2022/08/24 01:52:08;;;;;;;3.27;1.80;;;;;;;;;;4953136;28;20292;-44
2022/08/24 01:54:34;;;;;;;1.73;1.40;;;;;;;;;;4969561;28;20170;-44
2022/08/24 01:57:00;;;;;;;4.27;1.90;;;;;;;;;;4952801;28;20197;-44
2022/08/24 01:59:26;;;;;;;2.00;1.53;;;;;;;;;;4943424;28;20178;-44
2022/08/24 02:01:56;;;;;;;2.43;1.50;;;;;;;;;;4951781;28;20269;-44
2022/08/24 02:04:22;;;;;;;2.63;1.53;;;;;;;;;;4953170;28;20186;-44
2022/08/24 02:06:48;;;;;;;3.00;1.60;;;;;;;;;;4946529;28;20600;-44
2022/08/24 02:09:15;;;;;;;2.73;1.80;;;;;;;;;;4950262;28;20180;-44
2022/08/24 02:11:42;;;;;;;2.27;1.97;;;;;;;;;;4952004;28;20181;-44
2022/08/24 02:14:08;;;;;;;2.60;1.80;;;;;;;;;;4949595;28;20519;-44
2022/08/24 02:16:34;;;;;;;2.00;1.80;;;;;;;;;;4949018;28;20170;-44
2022/08/24 02:19:00;;;;;;;8.50;2.17;;;;;;;;;;4949054;28;20474;-45
2022/08/24 02:21:26;;;;;;;3.97;2.10;;;;;;;;;;4950875;28;20189;-44
2022/08/24 02:23:52;;;;;;;3.23;2.27;;;;;;;;;;4954494;28;20389;-45
2022/08/24 02:26:18;;;;;;;3.60;2.30;;;;;;;;;;4955586;28;20675;-44
2022/08/24 02:28:44;;;;;;;2.80;2.00;;;;;;;;;;4955151;28;20186;-44
2022/08/24 02:31:12;;;;;;;3.73;2.27;;;;;;;;;;4954617;28;20202;-43
2022/08/24 02:33:38;;;;;;;3.27;1.90;;;;;;;;;;4967383;28;20189;-44
2022/08/24 02:36:05;;;;;;;4.67;2.47;;;;;;;;;;4954037;28;20245;-44
2022/08/24 02:38:32;;;;;;;2.47;2.07;;;;;;;;;;4955357;28;20197;-44
2022/08/24 02:40:58;;;;;;;4.47;2.47;;;;;;;;;;4951329;28;20978;-44
2022/08/24 02:43:25;;;;;;;3.30;2.10;;;;;;;;;;4951218;28;20797;-44
2022/08/24 02:45:52;;;;;;;3.37;2.30;;;;;;;;;;4956418;28;20198;-45
2022/08/24 02:48:18;;;;;;;5.70;2.37;;;;;;;;;;4953656;28;20921;-44
2022/08/24 02:50:45;;;;;;;2.37;2.13;;;;;;;;;;4950994;28;20198;-45
2022/08/24 02:53:13;;;;;;;3.53;1.83;;;;;;;;;;4951325;28;20541;-44
2022/08/24 02:55:40;;;;;;;4.20;2.30;;;;;;;;;;4956327;28;20205;-45
2022/08/24 02:58:06;;;;;;;4.17;2.30;;;;;;;;;;4955709;28;20229;-44
2022/08/24 03:00:32;;;;;;;3.03;2.40;;;;;;;;;;4949859;28;20174;-45
2022/08/24 03:02:59;;;;;;;3.00;2.27;;;;;;;;;;4953582;28;21180;-44
2022/08/24 03:05:25;;;;;;;3.30;2.30;;;;;;;;;;4956462;28;20260;-45
2022/08/24 03:07:51;;;;;;;3.60;2.30;;;;;;;;;;4951448;28;20584;-44
2022/08/24 03:10:17;;;;;;;5.23;2.30;;;;;;;;;;4949428;28;20289;-44
2022/08/24 03:12:44;;;;;;;2.90;1.80;;;;;;;;;;4954019;28;20269;-45
2022/08/24 03:15:10;;;;;;;2.80;2.60;;;;;;;;;;4954043;28;20489;-44
2022/08/24 03:17:37;;;;;;;4.80;2.37;;;;;;;;;;4953334;28;20460;-44
2022/08/24 03:20:05;;;;;;;3.20;2.90;;;;;;;;;;4955492;28;20225;-45
2022/08/24 03:22:31;;;;;;;4.53;2.80;;;;;;;;;;4951799;28;20657;-45
2022/08/24 03:24:57;;;;;;;3.00;2.70;;;;;;;;;;4948536;28;20174;-45
2022/08/24 03:27:23;;;;;;;4.17;2.50;;;;;;;;;;4953998;28;20179;-45
2022/08/24 03:29:49;;;;;;;2.63;2.30;;;;;;;;;;4958187;28;20198;-45
2022/08/24 03:32:16;;;;;;;2.93;2.07;;;;;;;;;;4951546;28;20757;-44
2022/08/24 03:34:42;;;;;;;3.43;1.93;;;;;;;;;;4949881;28;20880;-45
2022/08/24 03:37:09;;;;;;;2.20;2.00;;;;;;;;;;4954899;28;20297;-45
2022/08/24 03:39:35;;;;;;;2.17;1.97;;;;;;;;;;4949902;28;20185;-45
2022/08/24 03:42:01;;;;;;;2.83;2.10;;;;;;;;;;4953187;28;20584;-45
2022/08/24 03:44:27;;;;;;;2.40;2.10;;;;;;;;;;4953411;28;21376;-44
2022/08/24 03:46:53;;;;;;;2.67;2.20;;;;;;;;;;4955463;28;20174;-45
2022/08/24 03:49:20;;;;;;;3.83;2.30;;;;;;;;;;4950250;28;20828;-45
2022/08/24 03:51:46;;;;;;;3.80;2.10;;;;;;;;;;4954123;28;20174;-45
2022/08/24 03:54:12;;;;;;;2.10;1.90;;;;;;;;;;4951837;28;20649;-45
2022/08/24 03:56:39;;;;;;;2.53;1.80;;;;;;;;;;4954165;28;20174;-44
2022/08/24 03:59:06;;;;;;;3.27;1.77;;;;;;;;;;4955611;28;20186;-45
2022/08/24 04:01:33;;;;;;;2.03;1.70;;;;;;;;;;4948963;28;20182;-45
2022/08/24 04:03:59;;;;;;;2.07;1.63;;;;;;;;;;4951614;28;20178;-45
2022/08/24 04:06:26;;;;;;;3.43;1.60;;;;;;;;;;4955089;28;20628;-45
2022/08/24 04:08:52;;;;;;;9.30;2.90;;;;;;;;;;4956674;28;20193;-45
2022/08/24 04:11:21;;;;;;;18.90;3.37;;;;;;;;;;4951072;28;20723;-45
2022/08/24 04:13:48;;;;;;;5.17;2.50;;;;;;;;;;4951742;28;20538;-45
2022/08/24 04:16:16;;;;;;;12.97;2.97;;;;;;;;;;4968223;28;20178;-45
2022/08/24 04:18:43;;;;;;;14.77;2.97;;;;;;;;;;4951691;28;20186;-45
2022/08/24 04:21:19;;;;;;;10.67;2.70;;;;;;;;;;4950847;28;20773;-45
2022/08/24 04:23:45;;;;;;;13.77;3.20;;;;;;;;;;4956100;28;20265;-45
2022/08/24 04:26:11;;;;;;;3.53;2.30;;;;;;;;;;4956266;28;20174;-45
2022/08/24 04:28:37;;;;;;;2.90;2.10;;;;;;;;;;4951138;28;20293;-44
2022/08/24 04:31:05;;;;;;;4.37;2.07;;;;;;;;;;4953359;28;20505;-45
2022/08/24 04:33:31;;;;;;;7.43;2.73;;;;;;;;;;4954233;28;20361;-44
2022/08/24 04:35:57;;;;;;;3.67;2.40;;;;;;;;;;4954919;28;20182;-44
2022/08/24 04:38:23;;;;;;;6.50;2.80;;;;;;;;;;4978803;28;20232;-44
2022/08/24 04:40:50;;;;;;;3.40;2.13;;;;;;;;;;4956031;28;20472;-45
2022/08/24 04:43:17;;;;;;;4.80;2.60;;;;;;;;;;4950900;28;20249;-45
2022/08/24 04:45:45;;;;;;;4.33;2.27;;;;;;;;;;4952778;28;20814;-45
2022/08/24 04:48:15;;;;;;;3.70;2.20;;;;;;;;;;4947566;28;20213;-45
2022/08/24 04:50:42;;;;;;;3.37;2.27;;;;;;;;;;4956026;28;20193;-45
2022/08/24 04:53:09;;;;;;;4.93;2.70;;;;;;;;;;4949933;28;20738;-45
2022/08/24 04:55:42;;;;;;;4.47;2.30;;;;;;;;;;4954049;28;20638;-45
2022/08/24 04:58:08;;;;;;;3.60;2.23;;;;;;;;;;4953387;28;20208;-45
2022/08/24 05:00:34;;;;;;;5.43;2.00;;;;;;;;;;4952455;28;20174;-44
2022/08/24 05:03:02;;;;;;;4.50;2.10;;;;;;;;;;4949794;28;20219;-45
2022/08/24 05:05:28;;;;;;;3.17;1.80;;;;;;;;;;4967540;28;20206;-44
2022/08/24 05:07:54;;;;;;;5.80;2.00;;;;;;;;;;4963659;28;20182;-45
2022/08/24 05:10:21;;;;;;;4.30;2.00;;;;;;;;;;4945387;28;20587;-45
2022/08/24 05:12:47;;;;;;;2.40;1.77;;;;;;;;;;4948804;28;20174;-45
2022/08/24 05:15:15;;;;;;;2.83;1.77;;;;;;;;;;4951492;28;21129;-45
2022/08/24 05:17:41;;;;;;;4.87;1.60;;;;;;;;;;4950441;28;20656;-45
2022/08/24 05:20:08;;;;;;;3.63;1.80;;;;;;;;;;4950764;28;20194;-45
2022/08/24 05:22:35;;;;;;;4.13;1.70;;;;;;;;;;4948915;28;20329;-45
2022/08/24 05:25:01;;;;;;;3.77;1.67;;;;;;;;;;4949741;28;20275;-45
2022/08/24 05:27:27;;;;;;;7.00;1.80;;;;;;;;;;4951238;28;20778;-45
2022/08/24 05:29:54;;;;;;;3.07;1.83;;;;;;;;;;4949923;28;20198;-46
2022/08/24 05:32:20;;;;;;;2.47;1.40;;;;;;;;;;4949350;28;20163;-45
2022/08/24 05:34:46;;;;;;;3.27;1.67;;;;;;;;;;4943083;28;20749;-45
2022/08/24 05:37:12;;;;;;;3.67;1.60;;;;;;;;;;4955042;28;20185;-45
2022/08/24 05:39:38;;;;;;;2.97;1.60;;;;;;;;;;4951076;28;20450;-45
2022/08/24 05:42:05;;;;;;;5.10;1.77;;;;;;;;;;4953572;28;20745;-44
2022/08/24 05:44:31;;;;;;;3.10;1.97;;;;;;;;;;4947992;28;20627;-45
2022/08/24 05:46:57;;;;;;;2.60;1.60;;;;;;;;;;4955534;28;20182;-44
2022/08/24 05:49:24;;;;;;;2.07;1.60;;;;;;;;;;4952021;28;20185;-45
2022/08/24 05:51:51;;;;;;;4.60;1.70;;;;;;;;;;4953183;28;20471;-45
2022/08/24 05:54:17;;;;;;;3.53;1.80;;;;;;;;;;4955732;28;20530;-45
2022/08/24 05:56:44;;;;;;;4.07;1.70;;;;;;;;;;4954517;28;20295;-45
2022/08/24 05:59:10;;;;;;;9.47;1.70;;;;;;;;;;4952662;28;21069;-45
2022/08/24 06:01:39;;;;;;;3.93;1.77;;;;;;;;;;4949343;28;20543;-45
2022/08/24 06:04:05;;;;;;;3.17;1.50;;;;;;;;;;4952884;28;20186;-44
2022/08/24 06:06:31;;;;;;;1.97;1.47;;;;;;;;;;4951160;28;20182;-45
2022/08/24 06:08:58;;;;;;;3.60;1.63;;;;;;;;;;4947925;28;20178;-45
2022/08/24 06:11:31;;;;;;;3.47;1.60;;;;;;;;;;4950166;28;20777;-45
2022/08/24 06:13:59;;;;;;;4.90;1.60;;;;;;;;;;4955528;28;20508;-45
2022/08/24 06:16:25;;;;;;;3.70;1.70;;;;;;;;;;4950747;28;20264;-45
2022/08/24 06:18:52;;;;;;;1.83;1.50;;;;;;;;;;4947943;28;20192;-45
2022/08/24 06:21:21;;;;;;;5.30;1.53;;;;;;;;;;4984230;28;20178;-45
2022/08/24 06:23:47;;;;;;;3.37;1.57;;;;;;;;;;4951807;28;20209;-46
2022/08/24 06:28:59;;;;;;;2.80;1.60;;;;;;;;;;4954071;28;20652;-45
2022/08/24 06:31:26;;;;;;;2.07;1.43;;;;;;;;;;4950608;28;20214;-45
2022/08/24 06:33:52;;;;;;;3.53;1.40;;;;;;;;;;4951481;28;21004;-45
2022/08/24 06:36:18;;;;;;;2.57;1.30;;;;;;;;;;4949332;28;20619;-45
2022/08/24 06:38:44;;;;;;;2.20;1.30;;;;;;;;;;4950085;28;20318;-45
2022/08/24 06:41:11;;;;;;;3.30;1.57;;;;;;;;;;4950459;28;20185;-45
2022/08/24 06:43:37;;;;;;;2.87;1.53;;;;;;;;;;4954775;28;20290;-45
2022/08/24 06:46:04;;;;;;;2.53;1.53;;;;;;;;;;4955792;28;20639;-45
2022/08/24 06:48:30;;;;;;;4.80;1.60;;;;;;;;;;4942229;28;20603;-46
2022/08/24 06:50:56;;;;;;;3.53;1.57;;;;;;;;;;4950334;28;20341;-45
2022/08/24 06:53:23;;;;;;;2.73;1.43;;;;;;;;;;4953370;28;20705;-45
2022/08/24 06:55:53;;;;;;;4.67;1.60;;;;;;;;;;4954545;28;20835;-45
2022/08/24 06:58:20;;;;;;;2.27;1.40;;;;;;;;;;4980967;28;20178;-45
2022/08/24 07:00:46;;;;;;;1.40;1.20;;;;;;;;;;4953307;28;20519;-45
2022/08/24 07:03:12;;;;;;;2.20;1.30;;;;;;;;;;4957103;28;20605;-45
2022/08/24 07:05:39;;;;;;;1.67;1.23;;;;;;;;;;4954559;28;20709;-45
2022/08/24 07:08:05;;;;;;;1.80;1.37;;;;;;;;;;4950240;28;20256;-45
2022/08/24 07:10:33;;;;;;;1.53;1.20;;;;;;;;;;4952840;28;20402;-45
2022/08/24 07:12:59;;;;;;;3.73;1.30;;;;;;;;;;4983681;28;20171;-45
2022/08/24 07:15:25;;;;;;;2.43;1.47;;;;;;;;;;4950983;28;20686;-45
2022/08/24 07:17:52;;;;;;;3.80;1.50;;;;;;;;;;4953442;28;20285;-44
2022/08/24 07:20:18;;;;;;;3.00;1.57;;;;;;;;;;4952098;28;20562;-45
2022/08/24 07:22:44;;;;;;;2.17;1.40;;;;;;;;;;4949599;28;20566;-45
2022/08/24 07:25:11;;;;;;;3.40;1.40;;;;;;;;;;4953563;28;20629;-45
2022/08/24 07:27:38;;;;;;;2.60;1.20;;;;;;;;;;4953177;28;20609;-46
2022/08/24 07:30:05;;;;;;;4.37;1.60;;;;;;;;;;4955235;28;20303;-44
2022/08/24 07:32:32;;;;;;;3.27;1.50;;;;;;;;;;4942534;28;20249;-45
2022/08/24 07:34:58;;;;;;;1.90;1.30;;;;;;;;;;4947503;28;22022;-45
2022/08/24 07:37:24;;;;;;;3.77;1.33;;;;;;;;;;4951692;28;20375;-45
2022/08/24 07:39:51;;;;;;;3.13;1.33;;;;;;;;;;4945046;28;20182;-45
2022/08/24 07:42:17;;;;;;;2.77;1.70;;;;;;;;;;4946853;28;20186;-45
2022/08/24 07:44:43;;;;;;;1.83;1.17;;;;;;;;;;4953623;28;20201;-45
2022/08/24 07:47:09;;;;;;;2.70;1.47;;;;;;;;;;4950884;28;20226;-45
2022/08/24 07:49:35;;;;;;;2.67;1.57;;;;;;;;;;4953408;28;20273;-45
2022/08/24 07:52:02;;;;;;;2.43;1.30;;;;;;;;;;4949162;28;20697;-45
2022/08/24 07:54:28;;;;;;;3.63;1.67;;;;;;;;;;4947033;28;20170;-45
2022/08/24 07:56:55;;;;;;;2.43;1.40;;;;;;;;;;4946374;28;20521;-45
2022/08/24 07:59:21;;;;;;;2.23;1.30;;;;;;;;;;4933037;28;20228;-45
2022/08/24 08:01:49;;;;;;;4.93;1.30;;;;;;;;;;4946538;28;20955;-44
2022/08/24 08:04:17;;;;;;;2.60;1.43;;;;;;;;;;4949995;28;20216;-45
2022/08/24 08:06:43;;;;;;;3.80;1.40;;;;;;;;;;4983581;28;20579;-45
2022/08/24 08:09:09;;;;;;;3.77;1.40;;;;;;;;;;4954528;28;20177;-45
2022/08/24 08:11:35;;;;;;;2.30;1.27;;;;;;;;;;4943088;28;20709;-45
2022/08/24 08:14:01;;;;;;;2.70;1.30;;;;;;;;;;4955170;28;20177;-45
2022/08/24 08:16:27;;;;;;;2.53;1.20;;;;;;;;;;4942611;28;20495;-45
2022/08/24 08:18:54;;;;;;;1.50;1.40;;;;;;;;;;4949272;28;20178;-45
2022/08/24 08:24:13;;;;;;;2.90;1.30;;;;;;;;;;4957655;28;20284;-45
2022/08/24 08:26:40;;;;;;;5.43;1.57;;;;;;;;;;4957268;28;20257;-45
2022/08/24 08:29:07;;;;;;;5.03;1.20;;;;;;;;;;4953673;28;20402;-45
2022/08/24 08:31:33;;;;;;;2.50;1.60;;;;;;;;;;4953694;28;20273;-45
2022/08/24 08:33:59;;;;;;;2.07;1.10;;;;;;;;;;4956791;28;20385;-45
2022/08/24 08:36:25;;;;;;;1.97;1.10;;;;;;;;;;4953635;28;20602;-45
2022/08/24 08:38:52;;;;;;;5.47;1.30;;;;;;;;;;4954293;28;20189;-45
2022/08/24 08:41:32;;;;;;;1.77;1.10;;;;;;;;;;4954397;28;20852;-45
2022/08/24 08:44:04;;;;;;;3.17;1.30;;;;;;;;;;4951605;28;20391;-45
2022/08/24 08:46:40;;;;;;;1.37;0.90;;;;;;;;;;4950112;28;20208;-45
2022/08/24 08:49:27;;;;;;;1.20;1.10;;;;;;;;;;4954848;28;20174;-45
2022/08/24 08:52:23;;;;;;;1.50;1.13;;;;;;;;;;4958238;28;20749;-45
2022/08/24 08:55:08;;;;;;;1.37;1.10;;;;;;;;;;4952228;28;20580;-45
2022/08/24 08:57:42;;;;;;;5.80;1.23;;;;;;;;;;4953893;28;20177;-46
2022/08/24 09:00:23;;;;;;;2.13;1.30;;;;;;;;;;4956265;28;20185;-45
2022/08/24 09:03:09;;;;;;;2.03;1.20;;;;;;;;;;4954161;28;20178;-45
2022/08/24 09:05:41;;;;;;;1.80;0.90;;;;;;;;;;4985302;28;20225;-46
2022/08/24 09:08:26;;;;;;;2.43;1.00;;;;;;;;;;4957536;28;21066;-45
2022/08/24 09:10:55;;;;;;;2.27;0.90;;;;;;;;;;4956734;28;20599;-45
2022/08/24 09:13:40;;;;;;;2.07;1.10;;;;;;;;;;4956972;28;20503;-45
2022/08/24 09:16:18;;;;;;;2.07;0.90;;;;;;;;;;4960376;28;20185;-45
2022/08/24 09:18:55;;;;;;;2.00;1.10;;;;;;;;;;4960099;28;20631;-45
2022/08/24 09:21:53;;;;;;;1.83;1.20;;;;;;;;;;4959051;28;20468;-45
2022/08/24 09:24:38;;;;;;;1.57;1.20;;;;;;;;;;4927707;28;20189;-45
2022/08/24 09:27:22;;;;;;;1.77;0.97;;;;;;;;;;4958018;28;20182;-46
2022/08/24 09:29:52;;;;;;;0.97;0.70;;;;;;;;;;4958771;28;20212;-46
2022/08/24 09:32:18;;;;;;;1.70;0.87;;;;;;;;;;4959963;28;20185;-45
2022/08/24 09:35:02;;;;;;;2.77;0.87;;;;;;;;;;4959033;28;20936;-45
2022/08/24 09:37:34;;;;;;;2.00;1.00;;;;;;;;;;4956448;28;20603;-46
2022/08/24 09:40:19;;;;;;;2.50;0.90;;;;;;;;;;4957494;28;20602;-45
2022/08/24 09:42:54;;;;;;;2.07;0.90;;;;;;;;;;4961939;28;20194;-45
2022/08/24 09:45:29;;;;;;;3.50;1.00;;;;;;;;;;4960362;28;20527;-45
2022/08/24 09:48:14;;;;;;;2.10;1.10;;;;;;;;;;4956452;28;20933;-45
2022/08/24 09:50:56;;;;;;;1.50;1.40;;;;;;;;;;4957248;28;20511;-45
2022/08/24 09:53:41;;;;;;;2.60;1.30;;;;;;;;;;4961207;28;20302;-45
2022/08/24 09:56:13;;;;;;;2.83;1.10;;;;;;;;;;4958858;28;20296;-45
2022/08/24 09:58:45;;;;;;;1.17;0.90;;;;;;;;;;4955459;28;20178;-45
2022/08/24 10:01:11;;;;;;;1.30;1.00;;;;;;;;;;4960629;28;20186;-45
2022/08/24 10:03:47;;;;;;;1.43;1.10;;;;;;;;;;4956880;28;20691;-45
2022/08/24 10:06:16;;;;;;;2.20;1.20;;;;;;;;;;4957582;28;20487;-45
2022/08/24 10:08:46;;;;;;;2.77;1.20;;;;;;;;;;4958479;28;20465;-45
2022/08/24 10:11:14;;;;;;;2.63;1.13;;;;;;;;;;4957212;28;20774;-45
2022/08/24 10:13:59;;;;;;;2.00;1.17;;;;;;;;;;4958172;28;20437;-45
2022/08/24 10:16:40;;;;;;;3.20;1.10;;;;;;;;;;4953787;28;20209;-45
2022/08/24 10:19:06;;;;;;;2.30;1.20;;;;;;;;;;4957060;28;20182;-45
2022/08/24 10:21:47;;;;;;;2.20;1.27;;;;;;;;;;4956702;28;20368;-45
2022/08/24 10:24:32;;;;;;;1.50;1.10;;;;;;;;;;4957986;28;20181;-45
2022/08/24 10:27:06;;;;;;;5.67;1.30;;;;;;;;;;4959931;28;20213;-45
2022/08/24 10:29:45;;;;;;;2.93;1.13;;;;;;;;;;4959204;28;20972;-45
2022/08/24 10:32:30;;;;;;;3.53;1.20;;;;;;;;;;4943064;28;20186;-45
2022/08/24 10:35:04;;;;;;;2.50;1.10;;;;;;;;;;4952920;28;20190;-45
2022/08/24 10:40:50;;;;;;;1.67;1.20;;;;;;;;;;4942838;28;20284;-45
2022/08/24 10:43:34;;;;;;;2.40;1.20;;;;;;;;;;4948171;28;20232;-45
2022/08/24 10:46:14;;;;;;;3.50;1.20;;;;;;;;;;4952974;28;20200;-45
2022/08/24 10:48:43;;;;;;;1.73;1.00;;;;;;;;;;4950135;28;20739;-45
2022/08/24 10:51:30;;;;;;;4.03;1.20;;;;;;;;;;4948507;28;20201;-45
2022/08/24 10:53:57;;;;;;;3.67;1.53;;;;;;;;;;4956283;28;20181;-45
2022/08/24 10:56:35;;;;;;;3.53;1.17;;;;;;;;;;4950077;28;20649;-45
2022/08/24 10:59:02;;;;;;;2.57;1.30;;;;;;;;;;4974066;28;20972;-45
2022/08/24 11:01:28;;;;;;;3.00;1.30;;;;;;;;;;4952608;28;20661;-44
2022/08/24 11:03:54;;;;;;;2.67;1.53;;;;;;;;;;4954521;28;20308;-45
2022/08/24 11:06:21;;;;;;;1.87;1.13;;;;;;;;;;4953928;28;20531;-45
2022/08/24 11:08:51;;;;;;;3.47;1.20;;;;;;;;;;4950442;28;20694;-45
2022/08/24 11:11:29;;;;;;;1.30;1.10;;;;;;;;;;4954908;28;20735;-45
2022/08/24 11:14:03;;;;;;;4.30;1.30;;;;;;;;;;4967371;28;20174;-45
2022/08/24 11:16:39;;;;;;;2.17;1.30;;;;;;;;;;4951854;28;20297;-45
2022/08/24 11:19:10;;;;;;;2.30;1.33;;;;;;;;;;4949143;28;20635;-45
2022/08/24 11:21:42;;;;;;;3.20;1.40;;;;;;;;;;4952454;28;20185;-45
2022/08/24 11:24:17;;;;;;;2.20;1.30;;;;;;;;;;4954046;28;20290;-45
2022/08/24 11:27:10;;;;;;;2.73;1.30;;;;;;;;;;4949518;28;20689;-46
2022/08/24 11:29:51;;;;;;;2.77;1.47;;;;;;;;;;4949268;28;20194;-45
2022/08/24 11:32:28;;;;;;;3.70;1.37;;;;;;;;;;4949303;28;20230;-45
2022/08/24 11:34:55;;;;;;;2.93;1.03;;;;;;;;;;4957028;28;20404;-45
2022/08/24 11:37:31;;;;;;;2.43;1.40;;;;;;;;;;4944987;28;20260;-45
2022/08/24 11:39:57;;;;;;;1.70;1.00;;;;;;;;;;4946852;28;20751;-45
2022/08/24 11:42:24;;;;;;;3.67;1.40;;;;;;;;;;4953537;28;20189;-46
2022/08/24 11:45:09;;;;;;;2.57;1.33;;;;;;;;;;4952166;28;20178;-45
2022/08/24 11:47:38;;;;;;;2.63;1.30;;;;;;;;;;4946622;28;20182;-45
2022/08/24 11:50:14;;;;;;;2.87;1.00;;;;;;;;;;4952138;28;20300;-45
2022/08/24 11:52:49;;;;;;;3.23;1.10;;;;;;;;;;4954586;28;20186;-45
2022/08/24 11:55:18;;;;;;;2.23;1.17;;;;;;;;;;4948723;28;20185;-45
2022/08/24 11:57:49;;;;;;;2.67;1.17;;;;;;;;;;4942023;28;20178;-45
2022/08/24 12:00:20;;;;;;;4.93;1.30;;;;;;;;;;4945372;28;20186;-45
2022/08/24 12:02:46;;;;;;;4.70;1.30;;;;;;;;;;4950263;28;20890;-45
2022/08/24 12:05:34;;;;;;;4.20;1.33;;;;;;;;;;4949508;28;20182;-45
2022/08/24 12:08:18;;;;;;;3.50;1.37;;;;;;;;;;4953514;28;20182;-45
2022/08/24 12:10:47;;;;;;;2.27;1.40;;;;;;;;;;4949026;28;20228;-45
2022/08/24 12:13:13;;;;;;;4.23;1.10;;;;;;;;;;4951338;28;20194;-45
2022/08/24 12:15:45;;;;;;;5.17;1.50;;;;;;;;;;4950983;28;20186;-45
2022/08/24 12:18:11;;;;;;;1.30;1.00;;;;;;;;;;4952341;28;20181;-45
2022/08/24 12:20:40;;;;;;;3.40;1.20;;;;;;;;;;4954139;28;20186;-45
2022/08/24 12:23:11;;;;;;;1.60;1.10;;;;;;;;;;4950244;28;20178;-45
2022/08/24 12:28:25;;;;;;;4.23;1.00;;;;;;;;;;4957149;28;21086;-45
2022/08/24 12:30:52;;;;;;;1.90;0.80;;;;;;;;;;4956305;28;20320;-45
2022/08/24 12:33:20;;;;;;;3.73;1.23;;;;;;;;;;4952098;28;21197;-45
2022/08/24 12:35:49;;;;;;;0.90;0.90;;;;;;;;;;4953197;28;20177;-45
2022/08/24 12:38:42;;;;;;;1.93;1.07;;;;;;;;;;4954759;28;20300;-45
2022/08/24 12:41:14;;;;;;;1.17;0.80;;;;;;;;;;4953776;28;20264;-45
2022/08/24 12:43:47;;;;;;;1.30;0.90;;;;;;;;;;4951013;28;20189;-44
2022/08/24 12:46:16;;;;;;;2.30;1.10;;;;;;;;;;4958031;28;20170;-45
2022/08/24 12:48:47;;;;;;;2.97;1.13;;;;;;;;;;4965576;28;20988;-45
2022/08/24 12:51:32;;;;;;;2.53;0.90;;;;;;;;;;4952714;28;20274;-45
2022/08/24 12:54:17;;;;;;;1.43;1.00;;;;;;;;;;4950476;28;21228;-45
2022/08/24 12:56:52;;;;;;;1.60;1.00;;;;;;;;;;4957463;28;20177;-45
2022/08/24 12:59:26;;;;;;;1.23;0.80;;;;;;;;;;4953835;28;20180;-45
2022/08/24 13:02:00;;;;;;;1.70;0.90;;;;;;;;;;4950120;28;20389;-45
2022/08/24 13:04:33;;;;;;;2.07;0.80;;;;;;;;;;4944950;28;20812;-45
2022/08/24 13:07:01;;;;;;;2.67;0.90;;;;;;;;;;4950889;28;20373;-45
2022/08/24 13:09:30;;;;;;;2.17;0.90;;;;;;;;;;4955455;28;20277;-44
2022/08/24 13:11:57;;;;;;;4.60;1.20;;;;;;;;;;4945421;28;20310;-45
2022/08/24 13:14:27;;;;;;;1.60;0.90;;;;;;;;;;4981652;28;20262;-45
2022/08/24 13:16:57;;;;;;;3.23;1.07;;;;;;;;;;4950229;28;20182;-45
2022/08/24 13:19:23;;;;;;;1.63;0.90;;;;;;;;;;4954009;28;20174;-45
2022/08/24 13:21:51;;;;;;;2.80;0.80;;;;;;;;;;4949902;28;20196;-45
2022/08/24 13:24:30;;;;;;;1.90;1.07;;;;;;;;;;4950045;28;20175;-45
2022/08/24 13:26:57;;;;;;;2.23;0.90;;;;;;;;;;4946257;28;20191;-45
2022/08/24 13:29:26;;;;;;;1.17;0.90;;;;;;;;;;4935332;28;20187;-45
2022/08/24 13:31:55;;;;;;;0.97;0.87;;;;;;;;;;4943394;28;20210;-45
2022/08/24 13:34:23;;;;;;;1.43;0.80;;;;;;;;;;4947320;28;21178;-45
2022/08/24 13:37:03;;;;;;;1.00;0.83;;;;;;;;;;4947114;28;20230;-45
2022/08/24 13:39:37;;;;;;;2.27;0.93;;;;;;;;;;4933787;28;20237;-46
2022/08/24 13:42:03;;;;;;;1.83;0.70;;;;;;;;;;4942532;28;20826;-45
2022/08/24 13:44:48;;;;;;;1.30;0.90;;;;;;;;;;4945855;28;20744;-45
2022/08/24 13:47:18;;;;;;;0.97;0.87;;;;;;;;;;4947601;28;20263;-46
2022/08/24 13:49:47;;;;;;;2.90;0.87;;;;;;;;;;4947159;28;20235;-45
2022/08/24 13:52:16;;;;;;;2.10;0.70;;;;;;;;;;4946848;28;20185;-46
2022/08/24 13:54:48;;;;;;;1.03;0.80;;;;;;;;;;4953165;28;20203;-45
2022/08/24 13:57:24;;;;;;;1.83;0.70;;;;;;;;;;4955921;28;20181;-46
2022/08/24 14:00:10;;;;;;;2.60;1.00;;;;;;;;;;4981339;28;20179;-46
2022/08/24 14:02:37;;;;;;;1.50;0.90;;;;;;;;;;4949388;28;20206;-45
2022/08/24 14:25:11;;;;;;;1.77;0.97;;;;;;;;;;4953947;27;20677;-43
2022/08/24 14:27:40;;;;;;;2.63;0.83;;;;;;;;;;4919786;28;20225;-43
2022/08/24 14:30:18;;;;;;;3.03;0.80;;;;;;;;;;4928042;28;22113;-43
2022/08/24 14:32:45;;;;;;;2.63;0.90;;;;;;;;;;4921349;28;20186;-43
2022/08/24 14:35:18;;;;;;;1.70;0.70;;;;;;;;;;4927813;28;20797;-42
2022/08/24 14:38:04;;;;;;;1.67;0.80;;;;;;;;;;4922905;28;20418;-43
2022/08/24 14:40:35;;;;;;;1.60;0.93;;;;;;;;;;4931286;28;20334;-43
2022/08/24 14:43:10;;;;;;;1.93;0.80;;;;;;;;;;4922525;28;20533;-43
2022/08/24 14:45:55;;;;;;;1.27;0.80;;;;;;;;;;4939897;28;20190;-42
2022/08/24 14:48:21;;;;;;;1.83;0.80;;;;;;;;;;4928922;28;20602;-43
2022/08/24 14:50:50;;;;;;;1.70;1.00;;;;;;;;;;4926960;28;20730;-43
2022/08/24 14:53:25;;;;;;;1.17;0.77;;;;;;;;;;4918719;28;20190;-42
2022/08/24 14:56:03;;;;;;;2.43;1.00;;;;;;;;;;4921688;28;20182;-43
2022/08/24 14:58:42;;;;;;;5.20;1.13;;;;;;;;;;4927627;28;20191;-42
2022/08/24 15:01:14;;;;;;;1.37;0.90;;;;;;;;;;4933536;28;20182;-42
2022/08/24 15:03:43;;;;;;;4.67;0.90;;;;;;;;;;4931986;28;20269;-43
2022/08/24 15:06:10;;;;;;;2.80;0.80;;;;;;;;;;4927396;28;20214;-43
2022/08/24 15:08:44;;;;;;;2.20;0.80;;;;;;;;;;4934223;28;20182;-43
2022/08/24 15:11:16;;;;;;;4.27;0.80;;;;;;;;;;4926676;28;21026;-43
2022/08/24 15:13:57;;;;;;;3.40;1.00;;;;;;;;;;4928837;28;21003;-43
2022/08/24 15:16:42;;;;;;;0.97;0.87;;;;;;;;;;4931311;28;20242;-42
2022/08/24 15:19:26;;;;;;;2.37;0.90;;;;;;;;;;4933632;28;20286;-42
2022/08/24 15:22:01;;;;;;;3.83;1.07;;;;;;;;;;4931548;28;20178;-41
2022/08/24 15:24:33;;;;;;;0.87;0.80;;;;;;;;;;4918655;28;20997;-42
2022/08/24 15:27:26;;;;;;;5.63;1.00;;;;;;;;;;4918027;28;20186;-42
2022/08/24 15:29:55;;;;;;;0.87;0.80;;;;;;;;;;4913779;28;20178;-45
2022/08/24 15:32:22;;;;;;;3.00;0.90;;;;;;;;;;4912075;28;20181;-43
2022/08/24 15:34:51;;;;;;;3.80;0.80;;;;;;;;;;4911948;28;22198;-42